Time;durP1;ratioP1;P1;durP2;ratioP2;P2;SDS_P1;SDS_P2;PMS_P1;PMS_P2;Temp;Humidity;BMP_temperature;BMP_pressure;BME280_temperature;BME280_humidity;BME280_pressure;Samples;Min_cycle;Max_cycle;Signal;HPM_P1;HPM_P2
2022/01/17 00:01:31;;;;;;;10.75;2.70;;;6.30;99.90;;;;;;5076726;28;20489;-74
2022/01/17 00:03:57;;;;;;;18.95;2.70;;;6.30;99.90;;;;;;5095528;28;20066;-74
2022/01/17 00:06:23;;;;;;;17.60;3.17;;;6.30;99.90;;;;;;5094741;28;20028;-74
2022/01/17 00:08:49;;;;;;;13.00;2.88;;;6.20;99.90;;;;;;5094610;28;20123;-74
2022/01/17 00:11:16;;;;;;;18.77;2.85;;;6.20;99.90;;;;;;5083413;28;20401;-73
2022/01/17 00:13:43;;;;;;;27.52;3.53;;;6.30;99.90;;;;;;5087817;28;20031;-74
2022/01/17 00:16:12;;;;;;;22.65;3.05;;;6.30;99.90;;;;;;5095371;28;20024;-73
2022/01/17 00:21:05;;;;;;;21.33;2.40;;;6.30;99.90;;;;;;5096246;28;20040;-74
2022/01/17 00:23:31;;;;;;;14.88;2.38;;;6.30;99.90;;;;;;5099406;28;20048;-73
2022/01/17 00:25:57;;;;;;;20.50;2.75;;;6.30;99.90;;;;;;5096976;28;20020;-73
2022/01/17 00:28:23;;;;;;;21.88;3.38;;;6.30;99.90;;;;;;5118437;28;20022;-73
2022/01/17 00:30:49;;;;;;;9.27;2.38;;;6.40;99.90;;;;;;5099516;28;20052;-73
2022/01/17 00:33:14;;;;;;;13.30;2.67;;;6.40;99.90;;;;;;5108424;28;20023;-73
2022/01/17 00:35:40;;;;;;;22.63;2.90;;;6.40;99.90;;;;;;5094202;28;20144;-73
2022/01/17 00:38:06;;;;;;;19.70;3.40;;;6.40;99.90;;;;;;5076437;28;20035;-73
2022/01/17 00:40:32;;;;;;;20.50;2.67;;;6.40;99.90;;;;;;5076447;28;20107;-73
2022/01/17 00:42:57;;;;;;;25.42;2.65;;;6.40;99.90;;;;;;5094051;28;20020;-73
2022/01/17 00:45:30;;;;;;;31.88;3.55;;;6.40;99.90;;;;;;5094487;28;20461;-74
2022/01/17 00:47:57;;;;;;;22.35;3.95;;;6.50;99.90;;;;;;5094386;28;20016;-74
2022/01/17 00:50:25;;;;;;;26.45;4.07;;;6.50;99.90;;;;;;5094035;28;20024;-73
2022/01/17 00:52:50;;;;;;;16.45;3.42;;;6.50;99.90;;;;;;5097370;28;20127;-73
2022/01/17 00:55:16;;;;;;;26.83;3.58;;;6.50;99.90;;;;;;5100629;28;20055;-72
2022/01/17 00:57:41;;;;;;;16.48;3.15;;;6.50;99.90;;;;;;5075571;28;20024;-72
2022/01/17 01:00:08;;;;;;;17.13;2.55;;;6.50;99.90;;;;;;5093751;28;20431;-72
2022/01/17 01:02:35;;;;;;;20.92;3.72;;;6.50;99.90;;;;;;5075898;28;20028;-73
2022/01/17 01:05:01;;;;;;;23.08;4.13;;;6.50;99.90;;;;;;5093970;28;20067;-72
2022/01/17 01:07:26;;;;;;;16.15;3.33;;;6.60;99.90;;;;;;5075605;28;20473;-73
2022/01/17 01:10:03;;;;;;;23.20;3.30;;;6.50;99.90;;;;;;5099738;28;20165;-73
2022/01/17 01:12:29;;;;;;;18.02;2.85;;;6.50;99.90;;;;;;5097106;28;20024;-73
2022/01/17 01:14:54;;;;;;;18.20;3.55;;;6.60;99.90;;;;;;5094091;28;20028;-73
2022/01/17 01:17:31;;;;;;;22.38;3.45;;;6.50;99.90;;;;;;5100588;28;20042;-73
2022/01/17 01:20:11;;;;;;;20.25;3.13;;;6.50;99.90;;;;;;5096138;28;20026;-73
2022/01/17 01:28:05;;;;;;;20.58;3.33;;;6.50;99.90;;;;;;5094163;28;20404;-73
2022/01/17 01:30:33;;;;;;;23.67;3.90;;;6.50;99.90;;;;;;5075351;28;20107;-73
2022/01/17 01:32:59;;;;;;;18.65;2.97;;;6.50;99.90;;;;;;5076099;28;20048;-72
2022/01/17 01:35:28;;;;;;;30.13;2.97;;;6.60;99.90;;;;;;5094015;28;20020;-72
2022/01/17 01:37:53;;;;;;;20.77;3.45;;;6.60;99.90;;;;;;5093717;28;20091;-72
2022/01/17 01:40:21;;;;;;;28.45;3.90;;;6.60;99.90;;;;;;5099103;28;20043;-72
2022/01/17 01:42:48;;;;;;;27.40;3.83;;;6.60;99.90;;;;;;5097952;28;20024;-73
2022/01/17 01:45:15;;;;;;;23.65;3.50;;;6.60;99.90;;;;;;5094544;28;20081;-73
2022/01/17 01:47:42;;;;;;;25.75;4.07;;;6.60;99.90;;;;;;5097220;28;20028;-73
2022/01/17 01:50:10;;;;;;;26.30;3.50;;;6.60;99.90;;;;;;5079482;28;20028;-72
2022/01/17 01:52:37;;;;;;;30.58;3.38;;;6.60;99.90;;;;;;5097249;28;20438;-74
2022/01/17 01:55:04;;;;;;;28.33;4.13;;;6.60;99.90;;;;;;5097347;28;20031;-74
2022/01/17 01:57:30;;;;;;;27.10;3.80;;;6.60;99.90;;;;;;5097453;28;20048;-73
2022/01/17 01:59:56;;;;;;;26.50;4.03;;;6.60;99.90;;;;;;5097106;28;20047;-74
2022/01/17 02:02:21;;;;;;;25.75;3.72;;;6.70;99.90;;;;;;5097275;28;20397;-73
2022/01/17 02:04:47;;;;;;;16.08;3.10;;;6.70;99.90;;;;;;5097307;28;20042;-73
2022/01/17 02:07:13;;;;;;;22.75;2.85;;;6.70;99.90;;;;;;5097478;28;20026;-73
2022/01/17 02:09:38;;;;;;;19.75;3.22;;;6.60;99.90;;;;;;5097357;28;20107;-73
2022/01/17 02:12:04;;;;;;;17.35;3.50;;;6.60;99.90;;;;;;5097458;28;20454;-74
2022/01/17 02:14:30;;;;;;;28.25;3.47;;;6.60;99.90;;;;;;5097400;28;20096;-73
2022/01/17 02:17:01;;;;;;;20.98;3.05;;;6.60;99.90;;;;;;5100721;28;20058;-73
2022/01/17 02:19:28;;;;;;;17.20;2.97;;;6.60;99.90;;;;;;5085006;28;20096;-73
2022/01/17 02:21:54;;;;;;;16.25;4.10;;;6.70;99.90;;;;;;5099514;28;20377;-73
2022/01/17 02:24:21;;;;;;;22.13;2.72;;;6.70;99.90;;;;;;5097013;28;20031;-74
2022/01/17 02:26:49;;;;;;;16.58;4.32;;;6.70;99.90;;;;;;5078808;28;20032;-73
2022/01/17 02:29:15;;;;;;;23.70;3.05;;;6.70;99.90;;;;;;5096697;28;20122;-73
2022/01/17 02:31:41;;;;;;;26.33;3.20;;;6.70;99.90;;;;;;5096408;28;20059;-73
2022/01/17 02:34:07;;;;;;;27.25;2.95;;;6.60;99.90;;;;;;5078412;28;20393;-73
2022/01/17 02:36:32;;;;;;;17.23;3.85;;;6.60;99.90;;;;;;5096511;28;20020;-73
2022/01/17 02:38:59;;;;;;;14.00;3.20;;;6.60;99.90;;;;;;5078672;28;20116;-73
2022/01/17 02:41:33;;;;;;;25.20;3.78;;;6.70;99.90;;;;;;5078336;28;20075;-74
2022/01/17 02:44:01;;;;;;;19.20;3.45;;;6.60;99.90;;;;;;5097123;28;20020;-73
2022/01/17 02:46:27;;;;;;;21.95;3.17;;;6.60;99.90;;;;;;5096496;28;20056;-73
2022/01/17 02:48:56;;;;;;;26.33;3.58;;;6.70;99.90;;;;;;5078998;28;20020;-73
2022/01/17 02:51:22;;;;;;;26.77;3.40;;;6.70;99.90;;;;;;5100183;28;20024;-73
2022/01/17 02:53:48;;;;;;;19.00;2.90;;;6.60;99.90;;;;;;5107715;28;20031;-73
2022/01/17 02:56:14;;;;;;;16.23;3.05;;;6.60;99.90;;;;;;5113296;28;20081;-73
2022/01/17 02:58:40;;;;;;;27.33;4.00;;;6.70;99.90;;;;;;5112546;28;20099;-73
2022/01/17 03:01:19;;;;;;;14.88;2.90;;;6.70;99.90;;;;;;5080725;28;20066;-73
2022/01/17 03:03:45;;;;;;;21.50;3.17;;;6.70;99.90;;;;;;5101542;28;20556;-73
2022/01/17 03:06:12;;;;;;;23.02;3.03;;;6.70;99.90;;;;;;5098596;28;20040;-73
2022/01/17 03:08:40;;;;;;;22.75;3.20;;;6.70;99.90;;;;;;5095837;28;20097;-73
2022/01/17 03:11:09;;;;;;;20.45;3.83;;;6.70;99.90;;;;;;5096267;28;20024;-73
2022/01/17 03:13:37;;;;;;;17.30;2.63;;;6.70;99.90;;;;;;5098463;28;20377;-73
2022/01/17 03:16:10;;;;;;;19.60;3.65;;;6.70;99.90;;;;;;5099116;28;20020;-73
2022/01/17 03:18:39;;;;;;;15.43;3.40;;;6.70;99.90;;;;;;5099724;28;20022;-73
2022/01/17 03:21:08;;;;;;;16.45;3.65;;;6.70;99.90;;;;;;5107183;28;20028;-73
2022/01/17 03:23:34;;;;;;;17.17;2.67;;;6.70;99.90;;;;;;5118636;28;20084;-73
2022/01/17 03:25:59;;;;;;;13.30;2.40;;;6.70;99.90;;;;;;5101049;28;20028;-73
2022/01/17 03:28:25;;;;;;;21.50;3.28;;;6.70;99.90;;;;;;5077851;28;20027;-73
2022/01/17 03:30:52;;;;;;;26.63;3.60;;;6.70;99.90;;;;;;5096073;28;20063;-73
2022/01/17 03:33:19;;;;;;;20.08;3.22;;;6.70;99.90;;;;;;5100339;28;20012;-73
2022/01/17 03:35:45;;;;;;;23.52;3.40;;;6.70;99.90;;;;;;5117353;28;20008;-73
2022/01/17 03:38:14;;;;;;;18.42;3.38;;;6.70;99.90;;;;;;5078006;28;20028;-73
2022/01/17 03:40:41;;;;;;;27.92;3.08;;;6.70;99.90;;;;;;5096027;28;20024;-73
2022/01/17 03:43:06;;;;;;;33.28;3.33;;;6.70;99.90;;;;;;5095606;28;20492;-74
2022/01/17 03:45:32;;;;;;;14.93;1.95;;;6.80;99.90;;;;;;5077162;28;20036;-73
2022/01/17 03:47:58;;;;;;;20.13;3.78;;;6.80;99.90;;;;;;5096995;28;20103;-73
2022/01/17 03:50:25;;;;;;;13.75;2.00;;;6.70;99.90;;;;;;5096793;28;20153;-73
2022/01/17 03:52:51;;;;;;;24.35;3.53;;;6.80;99.90;;;;;;5094772;28;20097;-74
2022/01/17 03:55:19;;;;;;;16.17;2.80;;;6.80;99.90;;;;;;5095145;28;20024;-73
2022/01/17 03:57:45;;;;;;;18.88;2.80;;;6.70;99.90;;;;;;5094603;28;20480;-73
2022/01/17 04:00:18;;;;;;;23.70;2.88;;;6.70;99.90;;;;;;5094298;28;20060;-73
2022/01/17 04:02:43;;;;;;;20.65;2.45;;;6.80;99.90;;;;;;5094735;28;20386;-73
2022/01/17 04:05:09;;;;;;;19.95;3.00;;;6.70;99.90;;;;;;5095234;28;20024;-74
2022/01/17 04:07:35;;;;;;;16.80;3.40;;;6.70;99.90;;;;;;5094165;28;20024;-73
2022/01/17 04:10:00;;;;;;;15.23;3.35;;;6.70;99.90;;;;;;5094025;28;20028;-74
2022/01/17 04:12:26;;;;;;;20.70;3.55;;;6.70;99.90;;;;;;5094259;28;20036;-74
2022/01/17 04:14:54;;;;;;;14.63;2.45;;;6.80;99.90;;;;;;5094514;28;20107;-74
2022/01/17 04:17:23;;;;;;;26.35;3.33;;;6.70;99.90;;;;;;5094726;28;20102;-73
2022/01/17 04:19:52;;;;;;;21.08;2.95;;;6.70;99.90;;;;;;5094660;28;20073;-73
2022/01/17 04:22:18;;;;;;;19.38;3.97;;;6.80;99.90;;;;;;5110108;22;20037;-62
2022/01/17 04:24:43;;;;;;;27.88;2.83;;;6.80;99.90;;;;;;5073651;28;20027;-60
2022/01/17 04:27:09;;;;;;;14.65;2.70;;;6.80;99.90;;;;;;5073524;28;20039;-62
2022/01/17 04:29:35;;;;;;;22.98;3.60;;;6.80;99.90;;;;;;5073651;28;20569;-62
2022/01/17 04:32:02;;;;;;;19.85;2.95;;;6.80;99.90;;;;;;5055313;28;20029;-62
2022/01/17 04:34:27;;;;;;;24.10;3.17;;;6.80;99.90;;;;;;5055526;28;20384;-62
2022/01/17 04:36:53;;;;;;;19.73;2.85;;;6.80;99.90;;;;;;5073115;28;20025;-62
2022/01/17 04:39:19;;;;;;;17.40;3.38;;;6.80;99.90;;;;;;5073603;28;20020;-62
2022/01/17 04:41:44;;;;;;;29.85;3.55;;;6.80;99.90;;;;;;5073264;28;20076;-62
2022/01/17 04:46:54;;;;;;;15.60;3.20;;;6.90;99.90;;;;;;5073171;28;20124;-62
2022/01/17 04:49:20;;;;;;;25.73;3.30;;;6.90;99.90;;;;;;5073132;28;20060;-62
2022/01/17 04:51:46;;;;;;;23.17;2.75;;;6.80;99.90;;;;;;5072980;28;20021;-62
2022/01/17 04:54:51;;;;;;;18.40;3.25;;;6.80;99.90;;;;;;5073015;28;20413;-62
2022/01/17 04:57:03;;;;;;;27.77;3.80;;;6.80;99.90;;;;;;5069179;28;20112;-61
2022/01/17 04:59:29;;;;;;;22.67;2.92;;;6.80;99.90;;;;;;5073143;28;20044;-62
2022/01/17 05:01:55;;;;;;;15.15;3.35;;;6.80;99.90;;;;;;5073141;28;20028;-61
2022/01/17 05:04:20;;;;;;;18.63;3.53;;;6.80;99.90;;;;;;5073067;28;20029;-62
2022/01/17 05:06:46;;;;;;;29.85;3.72;;;6.80;99.90;;;;;;5072887;28;20024;-62
2022/01/17 05:09:11;;;;;;;27.92;2.92;;;6.90;99.90;;;;;;5073128;28;20401;-62
2022/01/17 05:11:37;;;;;;;31.52;3.70;;;6.80;99.90;;;;;;5073134;28;20037;-62
2022/01/17 05:14:02;;;;;;;16.90;3.47;;;6.90;99.90;;;;;;5073131;28;20570;-62
2022/01/17 05:16:36;;;;;;;27.75;3.70;;;6.80;99.90;;;;;;5073103;28;20051;-62
2022/01/17 05:21:45;;;;;;;15.93;2.85;;;6.90;99.90;;;;;;5075659;28;20516;-61
2022/01/17 05:24:11;;;;;;;24.55;3.63;;;6.80;99.90;;;;;;5076810;28;20016;-60
2022/01/17 05:26:37;;;;;;;30.05;3.08;;;6.80;99.90;;;;;;5076884;28;20029;-61
2022/01/17 05:29:02;;;;;;;25.15;3.42;;;6.80;99.90;;;;;;5076729;28;20025;-62
2022/01/17 05:31:28;;;;;;;20.92;3.58;;;6.80;99.90;;;;;;5076913;28;20055;-61
2022/01/17 05:33:53;;;;;;;19.08;2.95;;;6.80;99.90;;;;;;5076807;28;20113;-61
2022/01/17 05:36:19;;;;;;;22.33;3.67;;;6.90;99.90;;;;;;5076718;28;20032;-61
2022/01/17 05:38:44;;;;;;;24.17;3.20;;;6.80;99.90;;;;;;5058826;28;20029;-59
2022/01/17 05:41:10;;;;;;;20.55;2.55;;;6.80;99.90;;;;;;5076499;28;20484;-61
2022/01/17 05:43:35;;;;;;;21.83;3.08;;;6.90;99.90;;;;;;5076405;28;20028;-62
2022/01/17 05:46:01;;;;;;;26.45;3.22;;;6.90;99.90;;;;;;5076753;28;20056;-61
2022/01/17 05:48:27;;;;;;;22.63;3.25;;;6.90;99.90;;;;;;5076468;28;20035;-61
2022/01/17 05:50:53;;;;;;;20.42;3.58;;;6.90;99.90;;;;;;5076579;28;20035;-61
2022/01/17 05:53:18;;;;;;;20.15;3.00;;;6.90;99.90;;;;;;5076536;28;20488;-61
2022/01/17 05:55:44;;;;;;;19.13;2.75;;;6.90;99.90;;;;;;5076171;28;20027;-61
2022/01/17 05:58:11;;;;;;;16.83;3.78;;;7.00;99.90;;;;;;5076569;28;20027;-62
2022/01/17 06:00:37;;;;;;;23.52;3.72;;;7.00;99.90;;;;;;5076471;28;20434;-61
2022/01/17 06:03:02;;;;;;;18.85;3.13;;;7.00;99.90;;;;;;5076301;28;20020;-61
2022/01/17 06:05:28;;;;;;;26.20;3.05;;;7.00;99.90;;;;;;5076155;28;20024;-62
2022/01/17 06:07:53;;;;;;;31.48;3.95;;;7.00;99.90;;;;;;5076217;28;20150;-62
2022/01/17 06:10:19;;;;;;;19.75;3.33;;;7.00;99.90;;;;;;5075938;28;20025;-62
2022/01/17 06:12:44;;;;;;;21.55;3.47;;;7.00;99.90;;;;;;5076027;28;20050;-62
2022/01/17 06:15:10;;;;;;;18.38;3.65;;;7.00;99.90;;;;;;5076042;28;20121;-61
2022/01/17 06:17:36;;;;;;;14.52;2.90;;;7.00;99.90;;;;;;5076133;28;20473;-59
2022/01/17 06:20:03;;;;;;;16.90;3.08;;;7.00;99.90;;;;;;5076268;28;20051;-60
2022/01/17 06:22:29;;;;;;;18.77;2.97;;;7.00;99.90;;;;;;5075576;28;20413;-60
2022/01/17 06:24:55;;;;;;;21.48;3.83;;;7.00;99.90;;;;;;5075972;28;20024;-60
2022/01/17 06:27:20;;;;;;;17.90;3.63;;;7.00;99.90;;;;;;5075752;28;20037;-61
2022/01/17 06:29:46;;;;;;;33.85;4.00;;;7.00;99.90;;;;;;5075502;28;20033;-62
2022/01/17 06:32:11;;;;;;;20.52;4.43;;;7.00;99.90;;;;;;5074602;28;20146;-60
2022/01/17 06:34:37;;;;;;;25.42;3.47;;;7.00;99.90;;;;;;5075497;28;20481;-60
2022/01/17 06:37:03;;;;;;;22.17;4.40;;;7.10;99.90;;;;;;5075658;28;20095;-60
2022/01/17 06:39:28;;;;;;;30.60;3.95;;;7.10;99.90;;;;;;5075102;28;20086;-61
2022/01/17 06:41:54;;;;;;;23.70;3.20;;;7.10;99.90;;;;;;5074250;28;20389;-60
2022/01/17 06:44:20;;;;;;;25.50;4.10;;;7.10;99.90;;;;;;5068575;28;20471;-58
2022/01/17 06:46:45;;;;;;;19.33;2.80;;;7.10;99.90;;;;;;5070416;28;20457;-60
2022/01/17 06:49:11;;;;;;;19.60;4.32;;;7.10;99.90;;;;;;5065525;28;20036;-61
2022/01/17 06:51:36;;;;;;;15.38;3.13;;;7.10;99.90;;;;;;5046998;28;20028;-62
2022/01/17 06:54:02;;;;;;;25.23;3.72;;;7.00;99.90;;;;;;5063431;28;20017;-61
2022/01/17 06:56:28;;;;;;;19.20;4.03;;;7.00;99.90;;;;;;5068450;28;20031;-61
2022/01/17 06:58:54;;;;;;;14.80;4.05;;;6.90;99.90;;;;;;5075062;28;20024;-62
2022/01/17 07:01:20;;;;;;;20.88;3.75;;;6.90;99.90;;;;;;5073916;28;20089;-61
2022/01/17 07:03:47;;;;;;;22.65;5.07;;;6.80;99.90;;;;;;5074969;28;20033;-61
2022/01/17 07:06:12;;;;;;;30.00;3.90;;;6.80;99.90;;;;;;5075692;28;20029;-61
2022/01/17 07:08:38;;;;;;;26.73;3.95;;;6.80;99.90;;;;;;5076121;28;20026;-61
2022/01/17 07:11:04;;;;;;;22.40;4.25;;;6.70;99.90;;;;;;5074333;28;20154;-60
2022/01/17 07:13:30;;;;;;;17.77;4.18;;;6.70;99.90;;;;;;5074341;28;20017;-61
2022/01/17 07:15:55;;;;;;;26.20;3.90;;;6.70;99.90;;;;;;5074921;28;20477;-62
2022/01/17 07:18:21;;;;;;;24.60;5.10;;;6.60;99.90;;;;;;5074924;28;20072;-61
2022/01/17 07:20:47;;;;;;;28.15;4.35;;;6.60;99.90;;;;;;5074683;28;20039;-61
2022/01/17 07:23:12;;;;;;;29.90;3.83;;;6.60;99.90;;;;;;5074722;28;20092;-61
2022/01/17 07:25:38;;;;;;;21.05;4.50;;;6.60;99.90;;;;;;5074955;28;20166;-61
2022/01/17 07:28:09;;;;;;;26.83;5.40;;;6.60;99.90;;;;;;5074579;28;20055;-61
2022/01/17 07:30:35;;;;;;;19.00;5.00;;;6.60;99.90;;;;;;5074589;28;20024;-61
2022/01/17 07:33:03;;;;;;;24.77;4.15;;;6.60;99.90;;;;;;5074994;28;20040;-62
2022/01/17 07:35:28;;;;;;;25.75;5.35;;;6.70;99.90;;;;;;5074415;28;20012;-62
2022/01/17 07:37:54;;;;;;;25.95;5.50;;;6.60;99.90;;;;;;5074447;28;20031;-62
2022/01/17 07:40:19;;;;;;;22.52;4.45;;;6.70;99.90;;;;;;5074667;28;20089;-61
2022/01/17 07:42:45;;;;;;;16.38;5.00;;;6.60;99.90;;;;;;5074186;28;20104;-61
2022/01/17 07:45:16;;;;;;;38.38;5.07;;;6.70;99.90;;;;;;5073605;28;20045;-61
2022/01/17 07:48:08;;;;;;;21.08;4.50;;;6.70;99.90;;;;;;5074465;28;20499;-59
2022/01/17 07:50:28;;;;;;;24.42;5.10;;;6.70;99.90;;;;;;5073872;28;20107;-62
2022/01/17 07:52:54;;;;;;;21.40;4.82;;;6.70;99.90;;;;;;5074120;28;20114;-62
2022/01/17 07:55:20;;;;;;;34.78;5.43;;;6.70;99.90;;;;;;5058561;28;20021;-61
2022/01/17 07:57:46;;;;;;;33.42;6.45;;;6.70;99.90;;;;;;5064378;28;20492;-61
2022/01/17 08:00:15;;;;;;;14.52;4.15;;;6.80;99.90;;;;;;5059605;28;20025;-62
2022/01/17 08:02:41;;;;;;;21.75;4.25;;;6.80;99.90;;;;;;5052119;28;20024;-59
2022/01/17 08:05:10;;;;;;;38.33;5.65;;;6.80;99.90;;;;;;5059074;28;20094;-61
2022/01/17 08:07:35;;;;;;;19.45;4.85;;;6.90;99.90;;;;;;5065175;28;20039;-61
2022/01/17 08:10:01;;;;;;;27.10;4.85;;;6.90;99.90;;;;;;5049007;28;20032;-61
2022/01/17 08:12:26;;;;;;;30.15;5.88;;;6.90;99.90;;;;;;5058288;28;20072;-61
2022/01/17 08:14:57;;;;;;;27.92;5.60;;;6.90;99.90;;;;;;5072559;28;20366;-61
2022/01/17 08:17:22;;;;;;;18.35;4.68;;;6.90;99.90;;;;;;5064228;28;20020;-61
2022/01/17 08:19:48;;;;;;;24.70;4.88;;;7.00;99.90;;;;;;5067556;28;20029;-61
2022/01/17 08:22:13;;;;;;;16.35;4.63;;;7.00;99.90;;;;;;5065932;28;20032;-60
2022/01/17 08:24:39;;;;;;;26.63;4.80;;;7.00;99.90;;;;;;5063190;28;20028;-60
2022/01/17 08:27:05;;;;;;;28.58;5.13;;;7.10;99.90;;;;;;5065582;28;20075;-61
2022/01/17 08:29:31;;;;;;;26.13;4.28;;;7.20;99.90;;;;;;5067173;28;20485;-60
2022/01/17 08:31:59;;;;;;;25.25;5.28;;;7.20;99.90;;;;;;5064504;28;20088;-60
2022/01/17 08:34:25;;;;;;;37.03;5.85;;;7.20;99.90;;;;;;5066584;28;20040;-61
2022/01/17 08:36:50;;;;;;;31.42;5.15;;;7.20;99.90;;;;;;5067243;28;20430;-59
2022/01/17 08:39:16;;;;;;;27.20;4.82;;;7.30;99.90;;;;;;5058669;28;20067;-60
2022/01/17 08:41:42;;;;;;;20.92;5.40;;;7.30;99.90;;;;;;5054830;28;20032;-61
2022/01/17 08:44:13;;;;;;;28.77;5.25;;;7.40;99.90;;;;;;5054390;28;20029;-60
2022/01/17 08:46:39;;;;;;;33.42;5.00;;;7.40;99.90;;;;;;5054248;28;20040;-60
2022/01/17 08:49:05;;;;;;;35.55;5.68;;;7.40;99.90;;;;;;5055617;28;20025;-60
2022/01/17 08:51:31;;;;;;;32.28;5.20;;;7.40;99.90;;;;;;5056742;28;20040;-60
2022/01/17 08:53:56;;;;;;;34.33;5.57;;;7.50;99.90;;;;;;5056188;28;20138;-60
2022/01/17 08:56:22;;;;;;;39.35;6.53;;;7.40;99.90;;;;;;5055359;28;20033;-60
2022/01/17 08:58:47;;;;;;;34.47;6.15;;;7.40;99.90;;;;;;5040046;28;20023;-61
2022/01/17 09:01:13;;;;;;;32.45;5.80;;;7.50;99.90;;;;;;5055675;28;20056;-62
2022/01/17 09:03:40;;;;;;;38.70;5.90;;;7.50;99.90;;;;;;5054151;28;20029;-61
2022/01/17 09:06:06;;;;;;;33.45;5.60;;;7.50;99.90;;;;;;5053394;28;20025;-60
2022/01/17 09:08:32;;;;;;;34.92;6.40;;;7.50;99.90;;;;;;5053479;28;20021;-60
2022/01/17 09:10:58;;;;;;;33.97;6.32;;;7.50;99.90;;;;;;5053301;28;20032;-61
2022/01/17 09:13:25;;;;;;;45.60;5.78;;;7.50;99.90;;;;;;5053199;28;20029;-60
2022/01/17 09:15:51;;;;;;;47.53;7.28;;;7.50;99.90;;;;;;5053172;28;20025;-61
2022/01/17 09:18:19;;;;;;;30.75;6.15;;;7.50;99.90;;;;;;5053406;28;20036;-61
2022/01/17 09:20:45;;;;;;;46.63;7.25;;;7.60;99.90;;;;;;5053277;28;20070;-61
2022/01/17 09:23:11;;;;;;;39.85;6.63;;;7.60;99.90;;;;;;5053587;28;20052;-61
2022/01/17 09:25:37;;;;;;;45.60;6.68;;;7.60;99.90;;;;;;5053215;28;20037;-60
2022/01/17 09:28:03;;;;;;;41.08;6.53;;;7.60;99.90;;;;;;5052969;28;20469;-61
2022/01/17 09:30:29;;;;;;;50.35;7.18;;;7.60;99.90;;;;;;5053332;28;20025;-61
2022/01/17 09:32:54;;;;;;;38.60;6.32;;;7.70;99.90;;;;;;5052876;28;20516;-61
2022/01/17 09:35:20;;;;;;;40.33;7.13;;;7.70;99.90;;;;;;5053151;28;20336;-60
2022/01/17 09:37:45;;;;;;;48.30;7.07;;;7.70;99.90;;;;;;5052911;28;20096;-60
2022/01/17 09:40:12;;;;;;;57.38;6.97;;;7.80;99.90;;;;;;5052956;28;20470;-60
2022/01/17 09:42:39;;;;;;;49.05;6.88;;;7.80;99.90;;;;;;5053336;28;20075;-61
2022/01/17 09:45:07;;;;;;;47.88;6.45;;;7.90;99.90;;;;;;5052795;28;20033;-61
2022/01/17 09:47:34;;;;;;;39.67;7.00;;;7.90;99.90;;;;;;5052696;28;20037;-60
2022/01/17 09:50:06;;;;;;;41.22;7.05;;;8.00;99.90;;;;;;5053089;28;20024;-61
2022/01/17 09:52:34;;;;;;;42.40;7.15;;;8.00;99.90;;;;;;5052574;28;20438;-61
2022/01/17 09:55:16;;;;;;;45.10;6.68;;;8.00;99.90;;;;;;5034767;28;20040;-60
2022/01/17 09:57:53;;;;;;;49.40;7.90;;;8.00;99.90;;;;;;5052724;28;20025;-59
2022/01/17 10:00:25;;;;;;;43.65;5.78;;;8.00;99.90;;;;;;5034505;28;20064;-60
2022/01/17 10:02:51;;;;;;;57.55;7.03;;;8.00;99.90;;;;;;5052753;28;20036;-61
2022/01/17 10:05:18;;;;;;;44.58;7.25;;;8.00;99.90;;;;;;5052648;28;20040;-60
2022/01/17 10:07:54;;;;;;;47.13;7.35;;;8.00;99.90;;;;;;5053369;28;20031;-61
2022/01/17 10:10:50;;;;;;;33.40;5.65;;;8.00;99.90;;;;;;5056251;28;20032;-61
2022/01/17 10:13:24;;;;;;;42.17;6.78;;;8.00;99.90;;;;;;5056385;28;20036;-61
2022/01/17 10:16:18;;;;;;;41.75;7.05;;;7.90;99.90;;;;;;5056193;28;20076;-61
2022/01/17 10:18:53;;;;;;;47.25;6.50;;;7.90;99.90;;;;;;5056261;28;20029;-61
2022/01/17 10:21:34;;;;;;;39.50;6.43;;;7.90;99.90;;;;;;5080418;22;20342;-63
2022/01/17 10:35:26;;;;;;;51.40;7.22;;;7.80;99.90;;;;;;5076894;28;20028;-62
2022/01/17 10:38:05;;;;;;;44.42;7.55;;;7.80;99.90;;;;;;5076680;28;20021;-63
2022/01/17 10:40:40;;;;;;;47.20;6.35;;;7.80;99.90;;;;;;5076255;28;20028;-62
2022/01/17 10:43:17;;;;;;;50.75;8.38;;;7.80;99.90;;;;;;5076260;28;20028;-62
2022/01/17 10:45:43;;;;;;;41.38;7.35;;;7.80;99.90;;;;;;5076612;28;20020;-63
2022/01/17 10:48:09;;;;;;;48.65;8.60;;;7.90;99.90;;;;;;5076007;28;20489;-62
2022/01/17 10:50:38;;;;;;;50.10;7.82;;;7.90;99.90;;;;;;5057934;28;20031;-62
2022/01/17 10:53:07;;;;;;;50.03;8.13;;;7.90;99.90;;;;;;5075860;28;20651;-60
2022/01/17 10:55:35;;;;;;;54.40;8.82;;;7.90;99.90;;;;;;5075569;28;20040;-62
2022/01/17 10:58:10;;;;;;;49.97;8.40;;;7.90;99.90;;;;;;5075646;28;20033;-62
2022/01/17 11:00:43;;;;;;;44.38;9.02;;;7.90;99.90;;;;;;5075464;28;20075;-62
2022/01/17 11:03:14;;;;;;;59.85;11.05;;;8.00;99.90;;;;;;5075726;28;20027;-63
2022/01/17 11:05:41;;;;;;;;;;;8.00;99.90;;;;;;5075964;28;20025;-63
2022/01/17 11:08:08;;;;;;;60.70;8.52;;;8.10;99.90;;;;;;5075640;28;20273;-62
2022/01/17 11:10:40;;;;;;;55.58;8.45;;;8.10;99.90;;;;;;5076175;28;20021;-62
2022/01/17 11:13:16;;;;;;;55.45;8.75;;;8.20;99.90;;;;;;5075250;28;20032;-63
2022/01/17 11:15:47;;;;;;;45.13;7.40;;;8.20;99.90;;;;;;5076086;28;20029;-63
2022/01/17 11:18:23;;;;;;;63.30;9.63;;;8.20;99.90;;;;;;5075676;28;20021;-64
2022/01/17 11:21:00;;;;;;;33.50;7.35;;;8.20;99.90;;;;;;5075024;28;20531;-62
2022/01/17 11:23:26;;;;;;;49.17;8.35;;;8.30;99.90;;;;;;5075406;28;20033;-62
2022/01/17 11:25:55;;;;;;;41.80;6.38;;;8.30;99.90;;;;;;5075524;28;20082;-62
2022/01/17 11:28:24;;;;;;;36.10;6.80;;;8.30;99.90;;;;;;5057879;28;20044;-62
2022/01/17 11:30:52;;;;;;;37.05;6.05;;;8.30;99.90;;;;;;5076822;28;20393;-63
2022/01/17 11:33:17;;;;;;;40.20;5.68;;;8.30;99.90;;;;;;5078130;28;20024;-62
2022/01/17 11:35:45;;;;;;;46.25;6.47;;;8.30;99.90;;;;;;5076979;28;20082;-63
2022/01/17 11:38:19;;;;;;;22.10;5.88;;;8.30;99.90;;;;;;5079172;28;20493;-62
2022/01/17 11:40:45;;;;;;;29.75;5.28;;;8.40;99.90;;;;;;5077259;28;20025;-63
2022/01/17 11:43:35;;;;;;;34.90;5.45;;;8.40;99.90;;;;;;5075911;28;20029;-62
2022/01/17 11:46:03;;;;;;;29.35;4.60;;;8.40;99.90;;;;;;5060952;28;20020;-63
2022/01/17 11:48:31;;;;;;;29.30;5.07;;;8.30;99.90;;;;;;5075220;28;20027;-63
2022/01/17 11:51:11;;;;;;;26.65;4.28;;;8.40;99.90;;;;;;5075555;28;20020;-62
2022/01/17 11:53:40;;;;;;;27.27;5.10;;;8.40;99.90;;;;;;5057820;28;20016;-62
2022/01/17 11:56:06;;;;;;;24.05;5.47;;;8.50;99.90;;;;;;5074672;28;20024;-63
2022/01/17 11:58:39;;;;;;;24.20;5.03;;;8.50;99.90;;;;;;5074530;28;20449;-63
2022/01/17 12:01:04;;;;;;;29.85;5.47;;;8.60;99.90;;;;;;5074506;28;20412;-67
2022/01/17 12:03:54;;;;;;;26.88;5.43;;;8.50;99.90;;;;;;5074625;28;20055;-63
2022/01/17 12:06:32;;;;;;;26.80;4.53;;;8.60;99.90;;;;;;5074811;28;20024;-61
2022/01/17 12:09:17;;;;;;;23.58;5.75;;;8.60;99.90;;;;;;5056490;28;20024;-63
2022/01/17 12:11:42;;;;;;;23.23;3.55;;;8.60;99.90;;;;;;5074468;28;20032;-62
2022/01/17 12:14:26;;;;;;;23.67;4.22;;;8.60;99.90;;;;;;5073913;28;20021;-63
2022/01/17 12:16:51;;;;;;;27.63;4.40;;;8.70;99.90;;;;;;5057289;28;20043;-63
2022/01/17 12:19:17;;;;;;;33.65;3.78;;;8.70;99.90;;;;;;5074800;28;20024;-63
2022/01/17 12:21:53;;;;;;;17.67;4.28;;;8.60;99.90;;;;;;5074409;28;20410;-63
2022/01/17 12:24:30;;;;;;;22.60;2.90;;;8.60;99.90;;;;;;5058181;28;20082;-62
2022/01/17 12:27:02;;;;;;;28.05;5.13;;;8.60;99.90;;;;;;5074647;28;20080;-63
2022/01/17 12:29:51;;;;;;;24.23;3.88;;;8.60;99.90;;;;;;5074131;28;20044;-62
2022/01/17 12:32:20;;;;;;;17.67;3.38;;;8.70;99.90;;;;;;5074142;28;20021;-63
2022/01/17 12:34:47;;;;;;;25.27;3.53;;;8.70;99.90;;;;;;5074079;28;20027;-63
2022/01/17 12:37:44;;;;;;;23.45;3.95;;;8.70;99.90;;;;;;5055744;28;20035;-63
2022/01/17 12:40:28;;;;;;;24.70;4.88;;;8.70;99.90;;;;;;5073854;28;20020;-62
2022/01/17 12:42:56;;;;;;;24.75;4.68;;;8.70;99.90;;;;;;5073658;28;20052;-63
2022/01/17 12:45:29;;;;;;;22.10;4.80;;;8.70;99.90;;;;;;5073984;28;20057;-63
2022/01/17 12:47:56;;;;;;;22.02;3.60;;;8.70;99.90;;;;;;5073931;28;20433;-64
2022/01/17 12:50:26;;;;;;;13.85;3.85;;;8.70;99.90;;;;;;5073368;28;20027;-63
2022/01/17 12:52:53;;;;;;;27.55;3.47;;;8.60;99.90;;;;;;5073337;28;20037;-63
2022/01/17 12:55:19;;;;;;;20.92;3.00;;;8.50;99.90;;;;;;5072638;28;20103;-63
2022/01/17 12:57:46;;;;;;;14.27;2.60;;;8.40;99.90;;;;;;5073731;28;20487;-62
2022/01/17 13:00:21;;;;;;;26.65;4.63;;;8.30;99.90;;;;;;5074021;28;20050;-63
2022/01/17 13:02:49;;;;;;;24.60;2.92;;;8.10;99.90;;;;;;5055360;28;20481;-63
2022/01/17 13:05:20;;;;;;;22.48;3.22;;;8.10;99.90;;;;;;5073055;28;20055;-62
2022/01/17 13:07:45;;;;;;;21.35;3.75;;;8.00;99.90;;;;;;5073771;28;20085;-63
2022/01/17 13:10:11;;;;;;;27.55;3.55;;;8.00;99.90;;;;;;5073422;28;20487;-63
2022/01/17 13:12:41;;;;;;;21.83;3.90;;;8.00;99.90;;;;;;5073311;28;20104;-64
2022/01/17 13:15:08;;;;;;;19.50;4.03;;;8.00;99.90;;;;;;5073201;28;20021;-63
2022/01/17 13:17:35;;;;;;;21.45;3.15;;;8.00;99.90;;;;;;5073096;28;20024;-63